sensor_id;sensor_type;location;lat;lon;timestamp;pressure;altitude;pressure_sealevel;temperature;humidity
46174;BME280;31897;52.420;13.498;2023-02-18T00:02:00;101100;;;5.22905;31.50646
46174;BME280;31897;52.420;13.498;2023-02-18T00:05:01;101200;;;5.17962;31.62382
46174;BME280;31897;52.420;13.498;2023-02-18T00:08:02;101200;;;5.21871;31.64053
46174;BME280;31897;52.420;13.498;2023-02-18T00:11:03;101200;;;5.2129;31.69302
46174;BME280;31897;52.420;13.498;2023-02-18T00:14:05;101200;;;5.10274;31.79986
46174;BME280;31897;52.420;13.498;2023-02-18T00:17:06;101200;;;5.1554;31.78723
46174;BME280;31897;52.420;13.498;2023-02-18T00:20:07;101100;;;5.09919;31.9163
46174;BME280;31897;52.420;13.498;2023-02-18T00:23:08;101100;;;5.12729;31.90414
46174;BME280;31897;52.420;13.498;2023-02-18T00:26:09;101200;;;5.07852;31.95159
46174;BME280;31897;52.420;13.498;2023-02-18T00:29:11;101200;;;4.98678;32.11033
46174;BME280;31897;52.420;13.498;2023-02-18T00:32:12;101200;;;5.0236;32.02822
46174;BME280;31897;52.420;13.498;2023-02-18T00:35:13;101200;;;4.96675;32.06416
46174;BME280;31897;52.420;13.498;2023-02-18T00:38:13;101200;;;4.8944;32.18759
46174;BME280;31897;52.420;13.498;2023-02-18T00:41:14;101200;;;4.87824;32.11229
46174;BME280;31897;52.420;13.498;2023-02-18T00:44:15;101200;;;4.84788;32.14772
46174;BME280;31897;52.420;13.498;2023-02-18T00:47:16;101200;;;4.78134;32.17217
46174;BME280;31897;52.420;13.498;2023-02-18T00:50:17;101200;;;4.78489;32.18955
46174;BME280;31897;52.420;13.498;2023-02-18T00:53:18;101200;;;4.69445;32.28996
46174;BME280;31897;52.420;13.498;2023-02-18T00:56:19;101200;;;4.66376;32.33119
46174;BME280;31897;52.420;13.498;2023-02-18T00:59:20;101200;;;4.62823;32.30854
46174;BME280;31897;52.420;13.498;2023-02-18T01:02:21;101200;;;4.62597;32.36671
46174;BME280;31897;52.420;13.498;2023-02-18T01:05:22;101200;;;4.66247;32.29053
46174;BME280;31897;52.420;13.498;2023-02-18T01:08:23;101200;;;4.65568;32.24996
46174;BME280;31897;52.420;13.498;2023-02-18T01:11:24;101200;;;4.63146;32.28526
46174;BME280;31897;52.420;13.498;2023-02-18T01:14:25;101200;;;4.63598;32.25612
46174;BME280;31897;52.420;13.498;2023-02-18T01:17:26;101200;;;4.63436;32.16897
46174;BME280;31897;52.420;13.498;2023-02-18T01:20:27;101200;;;4.59496;32.22197
46174;BME280;31897;52.420;13.498;2023-02-18T01:23:27;101200;;;4.60658;32.24501
46174;BME280;31897;52.420;13.498;2023-02-18T01:26:28;101200;;;4.67991;32.14491
46174;BME280;31897;52.420;13.498;2023-02-18T01:29:29;101200;;;4.66796;32.10444
46174;BME280;31897;52.420;13.498;2023-02-18T01:32:30;101200;;;4.55684;32.26332
46174;BME280;31897;52.420;13.498;2023-02-18T01:35:31;101200;;;4.49773;32.33408
46174;BME280;31897;52.420;13.498;2023-02-18T01:38:32;101200;;;4.39307;32.51013
46174;BME280;31897;52.420;13.498;2023-02-18T01:41:33;101200;;;4.44572;32.50924
46174;BME280;31897;52.420;13.498;2023-02-18T01:44:33;101200;;;4.46962;32.53788
46174;BME280;31897;52.420;13.498;2023-02-18T01:47:34;101200;;;4.34429;32.70259
46174;BME280;31897;52.420;13.498;2023-02-18T01:50:37;101200;;;4.45929;32.61357
46174;BME280;31897;52.420;13.498;2023-02-18T01:53:41;101200;;;4.53875;32.56576
46174;BME280;31897;52.420;13.498;2023-02-18T01:56:44;101200;;;4.54424;32.53081
46174;BME280;31897;52.420;13.498;2023-02-18T01:59:48;101200;;;4.51485;32.58359
46174;BME280;31897;52.420;13.498;2023-02-18T02:02:50;101200;;;4.49934;32.51414
46174;BME280;31897;52.420;13.498;2023-02-18T02:05:51;101200;;;4.45024;32.59629
46174;BME280;31897;52.420;13.498;2023-02-18T02:08:53;101200;;;4.4538;32.68917
46174;BME280;31897;52.420;13.498;2023-02-18T02:12:04;101200;;;4.32394;32.77842
46174;BME280;31897;52.420;13.498;2023-02-18T02:15:17;101200;;;4.41568;32.70142
46174;BME280;31897;52.420;13.498;2023-02-18T02:18:26;101200;;;4.37046;32.72539
46174;BME280;31897;52.420;13.498;2023-02-18T02:21:37;101200;;;4.39598;32.66109
46174;BME280;31897;52.420;13.498;2023-02-18T02:28:20;101200;;;4.3669;32.66157
46174;BME280;31897;52.420;13.498;2023-02-18T02:31:33;101200;;;4.34688;32.68513
46174;BME280;31897;52.420;13.498;2023-02-18T02:34:41;101200;;;4.21799;32.86722
46174;BME280;31897;52.420;13.498;2023-02-18T02:37:48;101200;;;4.2322;32.82635
46174;BME280;31897;52.420;13.498;2023-02-18T02:40:51;101200;;;4.20055;32.8675
46174;BME280;31897;52.420;13.498;2023-02-18T02:43:59;101200;;;4.2813;32.7733
46174;BME280;31897;52.420;13.498;2023-02-18T02:47:04;101200;;;4.35527;32.6618
46174;BME280;31897;52.420;13.498;2023-02-18T02:50:07;101200;;;4.38822;32.59733
46174;BME280;31897;52.420;13.498;2023-02-18T02:53:12;101200;;;4.24125;32.6114
46174;BME280;31897;52.420;13.498;2023-02-18T02:56:14;101200;;;4.37401;32.45819
46174;BME280;31897;52.420;13.498;2023-02-18T02:59:17;101200;;;4.3627;32.35384
46174;BME280;31897;52.420;13.498;2023-02-18T03:02:22;101200;;;4.35754;32.36554
46174;BME280;31897;52.420;13.498;2023-02-18T03:05:28;101200;;;4.32071;32.34876
46174;BME280;31897;52.420;13.498;2023-02-18T03:08:38;101200;;;4.32394;32.27901
46174;BME280;31897;52.420;13.498;2023-02-18T03:11:41;101200;;;4.25772;32.26855
46174;BME280;31897;52.420;13.498;2023-02-18T03:14:45;101200;;;4.21605;32.33314
46174;BME280;31897;52.420;13.498;2023-02-18T03:17:50;101200;;;4.28421;32.26807
46174;BME280;31897;52.420;13.498;2023-02-18T03:20:55;101200;;;4.28647;32.21579
46174;BME280;31897;52.420;13.498;2023-02-18T03:23:57;101200;;;4.25191;32.17575
46174;BME280;31897;52.420;13.498;2023-02-18T03:27:02;101200;;;4.17438;32.22937
46174;BME280;31897;52.420;13.498;2023-02-18T03:30:06;101200;;;4.26386;32.09424
46174;BME280;31897;52.420;13.498;2023-02-18T03:33:08;101200;;;4.35334;31.98229
46174;BME280;31897;52.420;13.498;2023-02-18T03:36:11;101200;;;4.36723;31.90072
46174;BME280;31897;52.420;13.498;2023-02-18T03:39:13;101200;;;4.38532;31.78421
46174;BME280;31897;52.420;13.498;2023-02-18T03:42:14;101200;;;4.28647;31.757
46174;BME280;31897;52.420;13.498;2023-02-18T03:45:15;101200;;;4.38725;31.60408
46174;BME280;31897;52.420;13.498;2023-02-18T03:48:16;101200;;;4.41729;31.5396
46174;BME280;31897;52.420;13.498;2023-02-18T03:51:17;101200;;;4.47705;31.45711
46174;BME280;31897;52.420;13.498;2023-02-18T03:54:18;101200;;;4.35366;31.37235
46174;BME280;31897;52.420;13.498;2023-02-18T03:57:19;101200;;;4.21702;31.42728
46174;BME280;31897;52.420;13.498;2023-02-18T04:00:20;101200;;;4.30391;31.35009
46174;BME280;31897;52.420;13.498;2023-02-18T04:03:21;101200;;;4.2897;31.32132
46174;BME280;31897;52.420;13.498;2023-02-18T04:06:21;101200;;;4.28389;31.32144
46174;BME280;31897;52.420;13.498;2023-02-18T04:09:22;101200;;;4.16631;31.48633
46174;BME280;31897;52.420;13.498;2023-02-18T04:12:23;101200;;;4.25385;31.38591
46174;BME280;31897;52.420;13.498;2023-02-18T04:15:24;101200;;;4.18246;31.45118
46174;BME280;31897;52.420;13.498;2023-02-18T04:18:25;101200;;;4.25417;31.36848
46174;BME280;31897;52.420;13.498;2023-02-18T04:21:26;101200;;;4.25288;31.34528
46174;BME280;31897;52.420;13.498;2023-02-18T04:24:26;101200;;;4.26257;31.29281
46174;BME280;31897;52.420;13.498;2023-02-18T04:27:27;101200;;;4.26709;31.28692
46174;BME280;31897;52.420;13.498;2023-02-18T04:30:33;101200;;;4.25675;31.28712
46174;BME280;31897;52.420;13.498;2023-02-18T04:33:34;101200;;;4.24997;31.32791
46174;BME280;31897;52.420;13.498;2023-02-18T04:36:35;101200;;;4.31587;31.30919
46174;BME280;31897;52.420;13.498;2023-02-18T04:39:36;101200;;;4.30456;31.32684
46174;BME280;31897;52.420;13.498;2023-02-18T04:42:37;101200;;;4.28518;31.34465
46174;BME280;31897;52.420;13.498;2023-02-18T04:45:37;101200;;;4.23543;31.35723
46174;BME280;31897;52.420;13.498;2023-02-18T04:48:39;101200;;;4.30133;31.36176
46174;BME280;31897;52.420;13.498;2023-02-18T04:51:40;101200;;;4.31522;31.35568
46174;BME280;31897;52.420;13.498;2023-02-18T04:54:41;101200;;;4.29519;31.31541
46174;BME280;31897;52.420;13.498;2023-02-18T04:57:42;101200;;;4.27129;31.28683
46174;BME280;31897;52.420;13.498;2023-02-18T05:00:42;101200;;;4.26418;31.37991
46174;BME280;31897;52.420;13.498;2023-02-18T05:03:43;101200;;;4.22833;31.35737
46174;BME280;31897;52.420;13.498;2023-02-18T05:06:44;101200;;;4.16469;31.45733
46174;BME280;31897;52.420;13.498;2023-02-18T05:09:45;101200;;;4.17051;31.51528
46174;BME280;31897;52.420;13.498;2023-02-18T05:12:45;101200;;;4.20152;31.50308
46174;BME280;31897;52.420;13.498;2023-02-18T05:15:46;101200;;;4.22962;31.46188
46174;BME280;31897;52.420;13.498;2023-02-18T05:18:47;101200;;;4.23705;31.48497
46174;BME280;31897;52.420;13.498;2023-02-18T05:21:48;101200;;;4.29745;31.43153
46174;BME280;31897;52.420;13.498;2023-02-18T05:24:49;101200;;;4.27904;31.44932
46174;BME280;31897;52.420;13.498;2023-02-18T05:27:49;101200;;;4.38305;31.44731
46174;BME280;31897;52.420;13.498;2023-02-18T05:30:50;101200;;;4.41923;31.3304
46174;BME280;31897;52.420;13.498;2023-02-18T05:33:52;101200;;;4.38338;31.38339
46174;BME280;31897;52.420;13.498;2023-02-18T05:36:52;101200;;;4.49094;31.26507
46174;BME280;31897;52.420;13.498;2023-02-18T05:39:53;101200;;;4.54618;31.2756
46174;BME280;31897;52.420;13.498;2023-02-18T05:42:54;101200;;;4.5956;31.1293
46174;BME280;31897;52.420;13.498;2023-02-18T05:45:55;101200;;;4.57945;31.06568
46174;BME280;31897;52.420;13.498;2023-02-18T05:48:55;101200;;;4.64341;31.07601
46174;BME280;31897;52.420;13.498;2023-02-18T05:51:56;101200;;;4.67151;31.0173
46174;BME280;31897;52.420;13.498;2023-02-18T05:54:57;101200;;;4.68443;30.91819
46174;BME280;31897;52.420;13.498;2023-02-18T05:57:58;101200;;;4.71286;30.94086
46174;BME280;31897;52.420;13.498;2023-02-18T06:00:59;101200;;;4.76099;30.85263
46174;BME280;31897;52.420;13.498;2023-02-18T06:04:00;101200;;;4.72642;30.80683
46174;BME280;31897;52.420;13.498;2023-02-18T06:07:00;101200;;;4.74031;30.8298
46174;BME280;31897;52.420;13.498;2023-02-18T06:10:01;101200;;;4.72319;30.82434
46174;BME280;31897;52.420;13.498;2023-02-18T06:13:02;101200;;;4.7471;30.8064
46174;BME280;31897;52.420;13.498;2023-02-18T06:16:03;101200;;;4.75453;30.84695
46174;BME280;31897;52.420;13.498;2023-02-18T06:19:04;101200;;;4.76842;30.85829
46174;BME280;31897;52.420;13.498;2023-02-18T06:22:05;101200;;;4.82462;30.80477
46174;BME280;31897;52.420;13.498;2023-02-18T06:25:06;101200;;;4.82688;30.75819
46174;BME280;31897;52.420;13.498;2023-02-18T06:28:07;101200;;;4.80233;30.82269
46174;BME280;31897;52.420;13.498;2023-02-18T06:31:07;101200;;;4.76842;30.81177
46174;BME280;31897;52.420;13.498;2023-02-18T06:34:08;101200;;;4.87631;30.74551
46174;BME280;31897;52.420;13.498;2023-02-18T06:37:09;101200;;;4.90699;30.72741
46174;BME280;31897;52.420;13.498;2023-02-18T06:40:10;101200;;;4.97741;30.69683
46174;BME280;31897;52.420;13.498;2023-02-18T06:43:11;101200;;;5.06107;30.6543
46174;BME280;31897;52.420;13.498;2023-02-18T06:46:12;101200;;;5.1667;30.62293
46174;BME280;31897;52.420;13.498;2023-02-18T06:49:13;101200;;;5.17995;30.5295
46174;BME280;31897;52.420;13.498;2023-02-18T06:52:13;101200;;;5.14861;30.61168
46174;BME280;31897;52.420;13.498;2023-02-18T06:55:14;101200;;;5.147;30.56514
46174;BME280;31897;52.420;13.498;2023-02-18T06:58:15;101200;;;5.1189;30.65889
46174;BME280;31897;52.420;13.498;2023-02-18T07:01:16;101200;;;5.13634;30.68762
46174;BME280;31897;52.420;13.498;2023-02-18T07:04:17;101200;;;5.18156;30.61679
46174;BME280;31897;52.420;13.498;2023-02-18T07:07:18;101200;;;5.14215;30.61764
46174;BME280;31897;52.420;13.498;2023-02-18T07:10:19;101200;;;5.18802;30.59336
46174;BME280;31897;52.420;13.498;2023-02-18T07:13:20;101200;;;5.24391;30.5689
46174;BME280;31897;52.420;13.498;2023-02-18T07:16:20;101200;;;5.20708;30.51727
46174;BME280;31897;52.420;13.498;2023-02-18T07:19:21;101200;;;5.24746;30.46398
46174;BME280;31897;52.420;13.498;2023-02-18T07:22:22;101200;;;5.20256;30.43585
46174;BME280;31897;52.420;13.498;2023-02-18T07:25:23;101200;;;5.23648;30.44093
46174;BME280;31897;52.420;13.498;2023-02-18T07:28:24;101200;;;5.10242;30.81057
46174;BME280;31897;52.420;13.498;2023-02-18T07:31:25;101200;;;5.10824;31.02579
46174;BME280;31897;52.420;13.498;2023-02-18T07:34:26;101100;;;5.05817;31.28868
46174;BME280;31897;52.420;13.498;2023-02-18T07:37:27;101200;;;5.16153;31.32735
46174;BME280;31897;52.420;13.498;2023-02-18T07:40:28;101200;;;5.19642;31.39069
46174;BME280;31897;52.420;13.498;2023-02-18T07:43:28;101200;;;5.11017;31.68916
46174;BME280;31897;52.420;13.498;2023-02-18T07:46:29;101100;;;5.09725;31.82324
46174;BME280;31897;52.420;13.498;2023-02-18T07:49:30;101100;;;5.06883;32.13212
46174;BME280;31897;52.420;13.498;2023-02-18T07:52:31;101100;;;5.14151;32.17735
46174;BME280;31897;52.420;13.498;2023-02-18T07:55:32;101100;;;5.24487;32.25115
46174;BME280;31897;52.420;13.498;2023-02-18T07:58:34;101100;;;5.27815;32.44261
46174;BME280;31897;52.420;13.498;2023-02-18T08:01:35;101100;;;5.32918;32.60469
46174;BME280;31897;52.420;13.498;2023-02-18T08:04:36;101100;;;5.34437;32.81978
46174;BME280;31897;52.420;13.498;2023-02-18T08:07:36;101100;;;5.27265;33.01881
46174;BME280;31897;52.420;13.498;2023-02-18T08:10:40;101100;;;5.26749;33.07127
46174;BME280;31897;52.420;13.498;2023-02-18T08:13:41;101100;;;5.31949;33.06462
46174;BME280;31897;52.420;13.498;2023-02-18T08:16:42;101100;;;5.35632;33.09894
46174;BME280;31897;52.420;13.498;2023-02-18T08:19:42;101100;;;5.32111;33.19261
46174;BME280;31897;52.420;13.498;2023-02-18T08:22:43;101100;;;5.38765;33.19739
46174;BME280;31897;52.420;13.498;2023-02-18T08:25:44;101100;;;5.33403;33.2506
46174;BME280;31897;52.420;13.498;2023-02-18T08:28:46;101100;;;5.28622;33.3619
46174;BME280;31897;52.420;13.498;2023-02-18T08:31:47;101100;;;5.35438;33.47142
46174;BME280;31897;52.420;13.498;2023-02-18T08:34:47;101100;;;5.42447;33.55766
46174;BME280;31897;52.420;13.498;2023-02-18T08:37:49;101100;;;5.502;33.64963
46174;BME280;31897;52.420;13.498;2023-02-18T08:40:50;101100;;;5.54206;33.75382
46174;BME280;31897;52.420;13.498;2023-02-18T08:44:00;101100;;;5.50135;33.83008
46174;BME280;31897;52.420;13.498;2023-02-18T08:47:01;101100;;;5.43836;34.04048
46174;BME280;31897;52.420;13.498;2023-02-18T08:50:02;101100;;;5.46841;34.17973
46174;BME280;31897;52.420;13.498;2023-02-18T08:53:04;101100;;;5.56693;34.27153
46174;BME280;31897;52.420;13.498;2023-02-18T08:56:05;101100;;;5.60505;34.37579
46174;BME280;31897;52.420;13.498;2023-02-18T08:59:06;101100;;;5.70389;34.46765
46174;BME280;31897;52.420;13.498;2023-02-18T09:02:08;101100;;;5.73329;34.45562
46174;BME280;31897;52.420;13.498;2023-02-18T09:05:09;101100;;;5.82244;34.48358
46174;BME280;31897;52.420;13.498;2023-02-18T09:08:10;101100;;;5.84764;34.57643
46174;BME280;31897;52.420;13.498;2023-02-18T09:11:11;101100;;;5.9145;34.62218
46174;BME280;31897;52.420;13.498;2023-02-18T09:14:11;101000;;;5.99235;34.66197
46174;BME280;31897;52.420;13.498;2023-02-18T09:17:13;101000;;;6.07989;34.67834
46174;BME280;31897;52.420;13.498;2023-02-18T09:20:14;101000;;;6.08118;34.64919
46174;BME280;31897;52.420;13.498;2023-02-18T09:23:15;101000;;;6.16452;34.77051
46174;BME280;31897;52.420;13.498;2023-02-18T09:26:17;101000;;;6.21007;34.69418
46174;BME280;31897;52.420;13.498;2023-02-18T09:29:18;101000;;;6.19812;34.77009
46174;BME280;31897;52.420;13.498;2023-02-18T09:32:18;101000;;;6.254;34.88597
46174;BME280;31897;52.420;13.498;2023-02-18T09:35:19;101000;;;6.22848;34.82217
46174;BME280;31897;52.420;13.498;2023-02-18T09:38:20;101000;;;6.23139;34.8979
46174;BME280;31897;52.420;13.498;2023-02-18T09:41:26;101000;;;6.19101;34.96833
46174;BME280;31897;52.420;13.498;2023-02-18T09:44:29;101000;;;6.30084;35.04278
46174;BME280;31897;52.420;13.498;2023-02-18T09:47:32;101000;;;6.37158;34.86121
46174;BME280;31897;52.420;13.498;2023-02-18T09:50:34;101000;;;6.33896;34.96072
46174;BME280;31897;52.420;13.498;2023-02-18T09:53:35;101000;;;6.35608;35.0771
46174;BME280;31897;52.420;13.498;2023-02-18T09:56:36;101000;;;6.26854;35.11311
46174;BME280;31897;52.420;13.498;2023-02-18T09:59:38;100900;;;6.25723;35.38716
46174;BME280;31897;52.420;13.498;2023-02-18T10:02:39;100900;;;6.32539;35.38057
46174;BME280;31897;52.420;13.498;2023-02-18T10:05:54;100900;;;6.30989;35.36326
46174;BME280;31897;52.420;13.498;2023-02-18T10:08:56;100900;;;6.23494;35.55057
46174;BME280;31897;52.420;13.498;2023-02-18T10:12:03;100900;;;6.17486;35.78426
46174;BME280;31897;52.420;13.498;2023-02-18T10:15:07;100900;;;6.16388;35.93001
46174;BME280;31897;52.420;13.498;2023-02-18T10:18:19;100900;;;6.12124;36.04693
46174;BME280;31897;52.420;13.498;2023-02-18T10:21:21;100900;;;6.10444;36.28007
46174;BME280;31897;52.420;13.498;2023-02-18T10:24:26;100900;;;6.05954;36.44935
46174;BME280;31897;52.420;13.498;2023-02-18T10:27:29;100900;;;6.07311;36.589
46174;BME280;31897;52.420;13.498;2023-02-18T10:30:32;100900;;;6.06471;36.74629
46174;BME280;31897;52.420;13.498;2023-02-18T10:33:35;100900;;;6.09733;36.81591
46174;BME280;31897;52.420;13.498;2023-02-18T10:36:42;100800;;;6.0983;36.89743
46174;BME280;31897;52.420;13.498;2023-02-18T10:39:47;100800;;;6.25529;36.91371
46174;BME280;31897;52.420;13.498;2023-02-18T10:42:55;100800;;;6.33734;36.80238
46174;BME280;31897;52.420;13.498;2023-02-18T10:46:02;100800;;;6.29761;36.84348
46174;BME280;31897;52.420;13.498;2023-02-18T10:49:08;100800;;;6.31635;36.97733
46174;BME280;31897;52.420;13.498;2023-02-18T10:52:13;100800;;;6.35156;36.97124
46174;BME280;31897;52.420;13.498;2023-02-18T10:55:16;100800;;;6.35382;36.95374
46174;BME280;31897;52.420;13.498;2023-02-18T10:58:23;100800;;;6.28243;37.12904
46174;BME280;31897;52.420;13.498;2023-02-18T11:01:25;100800;;;6.31893;37.08217
46174;BME280;31897;52.420;13.498;2023-02-18T11:04:27;100800;;;6.32571;37.15786
46174;BME280;31897;52.420;13.498;2023-02-18T11:07:33;100700;;;6.2708;37.16407
46174;BME280;31897;52.420;13.498;2023-02-18T11:10:37;100700;;;6.22784;37.37404
46174;BME280;31897;52.420;13.498;2023-02-18T11:13:39;100700;;;6.2876;37.44355
46174;BME280;31897;52.420;13.498;2023-02-18T11:16:41;100700;;;6.40098;37.39038
46174;BME280;31897;52.420;13.498;2023-02-18T11:19:42;100700;;;6.39387;37.41956
46174;BME280;31897;52.420;13.498;2023-02-18T11:22:43;100700;;;6.37837;37.67599
46174;BME280;31897;52.420;13.498;2023-02-18T11:25:52;100700;;;6.40356;37.60593
46174;BME280;31897;52.420;13.498;2023-02-18T11:28:56;100700;;;6.40033;37.67586
46174;BME280;31897;52.420;13.498;2023-02-18T11:31:57;100700;;;6.41648;37.78063
46174;BME280;31897;52.420;13.498;2023-02-18T11:35:00;100700;;;6.37352;37.82748
46174;BME280;31897;52.420;13.498;2023-02-18T11:38:02;100600;;;6.33056;37.92673
46174;BME280;31897;52.420;13.498;2023-02-18T11:41:05;100600;;;6.29341;38.02011
46174;BME280;31897;52.420;13.498;2023-02-18T11:44:15;100600;;;6.22913;38.1893
46174;BME280;31897;52.420;13.498;2023-02-18T11:47:19;100600;;;6.28986;38.3113
46174;BME280;31897;52.420;13.498;2023-02-18T11:50:21;100600;;;6.28178;38.36375
46174;BME280;31897;52.420;13.498;2023-02-18T11:53:26;100600;;;6.35511;38.39837
46174;BME280;31897;52.420;13.498;2023-02-18T11:56:29;100600;;;6.41875;38.4447
46174;BME280;31897;52.420;13.498;2023-02-18T11:59:31;100600;;;6.42456;38.4272
46174;BME280;31897;52.420;13.498;2023-02-18T12:02:33;100600;;;6.46752;38.59595
46174;BME280;31897;52.420;13.498;2023-02-18T12:05:35;100600;;;6.43393;38.77664
46174;BME280;31897;52.420;13.498;2023-02-18T12:08:37;100600;;;6.39678;39.00971
46174;BME280;31897;52.420;13.498;2023-02-18T12:11:45;100600;;;6.41552;39.02713
46174;BME280;31897;52.420;13.498;2023-02-18T12:14:47;100500;;;6.46139;39.16678
46174;BME280;31897;52.420;13.498;2023-02-18T12:17:51;100500;;;6.56443;39.18981
46174;BME280;31897;52.420;13.498;2023-02-18T12:20:59;100500;;;6.61708;39.24794
46174;BME280;31897;52.420;13.498;2023-02-18T12:24:10;100500;;;6.65682;39.41098
46174;BME280;31897;52.420;13.498;2023-02-18T12:27:14;100500;;;6.73757;39.59145
46174;BME280;31897;52.420;13.498;2023-02-18T12:30:22;100500;;;6.81962;39.737
46174;BME280;31897;52.420;13.498;2023-02-18T12:33:27;100500;;;6.88326;39.84183
46174;BME280;31897;52.420;13.498;2023-02-18T12:36:36;100500;;;6.99761;39.90582
46174;BME280;31897;52.420;13.498;2023-02-18T12:39:48;100500;;;7.11649;40.08645
46174;BME280;31897;52.420;13.498;2023-02-18T12:42:55;100500;;;7.1026;40.36051
46174;BME280;31897;52.420;13.498;2023-02-18T12:46:10;100500;;;7.13264;40.66369
46174;BME280;31897;52.420;13.498;2023-02-18T12:49:22;100500;;;7.18077;41.09519
46174;BME280;31897;52.420;13.498;2023-02-18T12:52:29;100500;;;7.33324;41.19456
46174;BME280;31897;52.420;13.498;2023-02-18T12:55:40;100500;;;7.5655;41.20661
46174;BME280;31897;52.420;13.498;2023-02-18T12:58:46;100500;;;7.60394;41.45759
46174;BME280;31897;52.420;13.498;2023-02-18T13:01:52;100500;;;7.78548;41.37625
46174;BME280;31897;52.420;13.498;2023-02-18T13:04:57;100500;;;7.8517;41.39973
46174;BME280;31897;52.420;13.498;2023-02-18T13:08:07;100500;;;8.02743;41.31245
46174;BME280;31897;52.420;13.498;2023-02-18T13:11:17;100500;;;8.15988;41.24839
46174;BME280;31897;52.420;13.498;2023-02-18T13:14:20;100400;;;8.10722;41.47031
46174;BME280;31897;52.420;13.498;2023-02-18T13:17:21;100400;;;8.0985;41.60465
46174;BME280;31897;52.420;13.498;2023-02-18T13:20:24;100400;;;7.97542;42.00146
46174;BME280;31897;52.420;13.498;2023-02-18T13:23:31;100400;;;8.06943;42.03096
46174;BME280;31897;52.420;13.498;2023-02-18T13:26:33;100400;;;8.05941;42.17109
46174;BME280;31897;52.420;13.498;2023-02-18T13:29:35;100400;;;8.15568;42.07213
46174;BME280;31897;52.420;13.498;2023-02-18T13:32:40;100400;;;8.2009;42.09565
46174;BME280;31897;52.420;13.498;2023-02-18T13:35:47;100400;;;8.29523;41.86807
46174;BME280;31897;52.420;13.498;2023-02-18T13:38:53;100400;;;8.35725;41.82149
46174;BME280;31897;52.420;13.498;2023-02-18T13:42:09;100400;;;8.30363;41.97912
46174;BME280;31897;52.420;13.498;2023-02-18T13:45:23;100400;;;8.32398;41.98503
46174;BME280;31897;52.420;13.498;2023-02-18T13:48:25;100400;;;8.46256;41.92115
46174;BME280;31897;52.420;13.498;2023-02-18T13:51:28;100400;;;8.46773;41.99131
46174;BME280;31897;52.420;13.498;2023-02-18T13:54:30;100400;;;8.49131;42.02061
46174;BME280;31897;52.420;13.498;2023-02-18T13:57:32;100400;;;8.48065;42.10242
46174;BME280;31897;52.420;13.498;2023-02-18T14:00:38;100400;;;8.53104;42.02073
46174;BME280;31897;52.420;13.498;2023-02-18T14:03:57;100400;;;8.36791;42.3475
46174;BME280;31897;52.420;13.498;2023-02-18T14:10:32;100400;;;8.42961;42.32436
46174;BME280;31897;52.420;13.498;2023-02-18T14:13:38;100400;;;8.28586;42.39392
46174;BME280;31897;52.420;13.498;2023-02-18T14:17:11;100400;;;8.38083;42.30664
46174;BME280;31897;52.420;13.498;2023-02-18T14:20:31;100400;;;8.2962;42.42318
46174;BME280;31897;52.420;13.498;2023-02-18T14:27:08;100400;;;8.18378;42.56875
46174;BME280;31897;52.420;13.498;2023-02-18T14:30:16;100400;;;8.23837;42.46384
46174;BME280;31897;52.420;13.498;2023-02-18T14:33:18;100400;;;8.21867;42.38197
46174;BME280;31897;52.420;13.498;2023-02-18T14:36:23;100400;;;8.32236;42.17202
46174;BME280;31897;52.420;13.498;2023-02-18T14:39:31;100400;;;8.29232;42.09596
46174;BME280;31897;52.420;13.498;2023-02-18T14:42:36;100400;;;8.19541;42.10732
46174;BME280;31897;52.420;13.498;2023-02-18T14:45:49;100400;;;8.29813;41.86223
46174;BME280;31897;52.420;13.498;2023-02-18T14:48:58;100400;;;8.32753;41.76297
46174;BME280;31897;52.420;13.498;2023-02-18T14:52:00;100400;;;8.2416;41.93803
46174;BME280;31897;52.420;13.498;2023-02-18T14:55:04;100400;;;8.30912;41.79798
46174;BME280;31897;52.420;13.498;2023-02-18T14:58:06;100400;;;8.32172;41.72204
46174;BME280;31897;52.420;13.498;2023-02-18T15:01:13;100400;;;8.20704;41.6458
46174;BME280;31897;52.420;13.498;2023-02-18T15:04:16;100400;;;8.21091;41.69255
46174;BME280;31897;52.420;13.498;2023-02-18T15:07:17;100400;;;8.35725;41.48249
46174;BME280;31897;52.420;13.498;2023-02-18T15:10:19;100400;;;8.3734;41.22531
46174;BME280;31897;52.420;13.498;2023-02-18T15:13:20;100400;;;8.47613;41.23129
46174;BME280;31897;52.420;13.498;2023-02-18T15:16:22;100400;;;8.57336;40.8454
46174;BME280;31897;52.420;13.498;2023-02-18T15:19:28;100400;;;8.54525;40.61728
46174;BME280;31897;52.420;13.498;2023-02-18T15:22:30;100400;;;8.50003;40.64652
46174;BME280;31897;52.420;13.498;2023-02-18T15:25:31;100500;;;8.46256;40.71085
46174;BME280;31897;52.420;13.498;2023-02-18T15:28:32;100500;;;8.44964;40.68161
46174;BME280;31897;52.420;13.498;2023-02-18T15:31:35;100400;;;8.28069;40.85111
46174;BME280;31897;52.420;13.498;2023-02-18T15:34:37;100500;;;8.44188;40.47694